sensor_id;sensor_type;location;lat;lon;timestamp;P1;durP1;ratioP1;P2;durP2;ratioP2
62911;SDS011;49111;51.028;4.218;2022-08-11T08:50:32;5.68;;;3.10;;
62911;SDS011;49111;51.028;4.218;2022-08-11T08:53:22;9.52;;;3.30;;
62911;SDS011;49111;51.028;4.218;2022-08-11T08:55:54;5.93;;;3.05;;
62911;SDS011;49111;51.028;4.218;2022-08-11T08:58:23;6.85;;;3.58;;
62911;SDS011;49111;51.028;4.218;2022-08-11T09:00:51;5.90;;;2.97;;
62911;SDS011;49111;51.028;4.218;2022-08-11T09:03:18;5.78;;;4.00;;
62911;SDS011;49111;51.028;4.218;2022-08-11T09:05:46;10.88;;;4.03;;
62911;SDS011;49111;51.028;4.218;2022-08-11T09:08:13;4.20;;;2.92;;
62911;SDS011;49111;51.028;4.218;2022-08-11T09:10:44;7.88;;;3.58;;
62911;SDS011;49111;51.028;4.218;2022-08-11T09:13:32;4.53;;;2.97;;
62911;SDS011;49111;51.028;4.218;2022-08-11T09:16:00;8.50;;;3.45;;
62911;SDS011;49111;51.028;4.218;2022-08-11T09:18:29;5.50;;;3.47;;
62911;SDS011;49111;51.028;4.218;2022-08-11T09:20:56;7.88;;;3.88;;
62911;SDS011;49111;51.028;4.218;2022-08-11T09:23:23;6.72;;;3.20;;
62911;SDS011;49111;51.028;4.218;2022-08-11T09:26:09;4.82;;;3.40;;
62911;SDS011;49111;51.028;4.218;2022-08-11T09:28:54;4.30;;;3.45;;
62911;SDS011;49111;51.028;4.218;2022-08-11T09:31:22;9.73;;;4.28;;
62911;SDS011;49111;51.028;4.218;2022-08-11T09:33:51;5.90;;;3.80;;
62911;SDS011;49111;51.028;4.218;2022-08-11T09:36:18;5.80;;;3.13;;
62911;SDS011;49111;51.028;4.218;2022-08-11T09:39:04;6.55;;;3.13;;
62911;SDS011;49111;51.028;4.218;2022-08-11T09:41:48;4.90;;;3.13;;
62911;SDS011;49111;51.028;4.218;2022-08-11T09:44:15;4.40;;;3.50;;
62911;SDS011;49111;51.028;4.218;2022-08-11T09:47:00;8.40;;;3.28;;
62911;SDS011;49111;51.028;4.218;2022-08-11T09:49:27;7.03;;;3.42;;
62911;SDS011;49111;51.028;4.218;2022-08-11T09:51:54;7.32;;;3.97;;
62911;SDS011;49111;51.028;4.218;2022-08-11T09:54:21;7.30;;;4.50;;
62911;SDS011;49111;51.028;4.218;2022-08-11T09:56:50;7.05;;;3.95;;
62911;SDS011;49111;51.028;4.218;2022-08-11T09:59:35;7.15;;;3.75;;
62911;SDS011;49111;51.028;4.218;2022-08-11T10:02:01;4.75;;;3.28;;
62911;SDS011;49111;51.028;4.218;2022-08-11T10:04:32;8.93;;;3.97;;
62911;SDS011;49111;51.028;4.218;2022-08-11T10:07:09;17.38;;;13.45;;
62911;SDS011;49111;51.028;4.218;2022-08-11T10:09:43;23.45;;;13.38;;
62911;SDS011;49111;51.028;4.218;2022-08-11T10:12:16;7.60;;;4.07;;
62911;SDS011;49111;51.028;4.218;2022-08-11T10:14:47;7.82;;;5.05;;
62911;SDS011;49111;51.028;4.218;2022-08-11T10:17:40;4.25;;;3.13;;
62911;SDS011;49111;51.028;4.218;2022-08-11T10:20:31;4.40;;;2.97;;
62911;SDS011;49111;51.028;4.218;2022-08-11T10:23:01;6.95;;;3.83;;
62911;SDS011;49111;51.028;4.218;2022-08-11T10:25:46;4.57;;;3.15;;
62911;SDS011;49111;51.028;4.218;2022-08-11T10:28:32;5.55;;;3.25;;
62911;SDS011;49111;51.028;4.218;2022-08-11T10:31:00;5.32;;;3.10;;
62911;SDS011;49111;51.028;4.218;2022-08-11T10:33:46;5.82;;;2.92;;
62911;SDS011;49111;51.028;4.218;2022-08-11T10:36:28;7.10;;;3.63;;
62911;SDS011;49111;51.028;4.218;2022-08-11T10:38:56;4.78;;;3.45;;
62911;SDS011;49111;51.028;4.218;2022-08-11T10:41:24;5.70;;;3.42;;
62911;SDS011;49111;51.028;4.218;2022-08-11T10:44:10;8.25;;;3.75;;
62911;SDS011;49111;51.028;4.218;2022-08-11T10:46:37;8.20;;;4.13;;
62911;SDS011;49111;51.028;4.218;2022-08-11T10:49:21;8.65;;;3.85;;
62911;SDS011;49111;51.028;4.218;2022-08-11T10:51:49;4.50;;;3.33;;
62911;SDS011;49111;51.028;4.218;2022-08-11T10:54:35;6.88;;;3.60;;
62911;SDS011;49111;51.028;4.218;2022-08-11T10:57:22;8.00;;;3.60;;
62911;SDS011;49111;51.028;4.218;2022-08-11T11:00:08;5.90;;;3.33;;
62911;SDS011;49111;51.028;4.218;2022-08-11T11:02:39;5.50;;;3.35;;
62911;SDS011;49111;51.028;4.218;2022-08-11T11:05:29;10.10;;;3.53;;
62911;SDS011;49111;51.028;4.218;2022-08-11T11:08:05;7.57;;;3.05;;
62911;SDS011;49111;51.028;4.218;2022-08-11T11:10:56;6.80;;;4.53;;
62911;SDS011;49111;51.028;4.218;2022-08-11T11:13:23;7.15;;;3.42;;
62911;SDS011;49111;51.028;4.218;2022-08-11T11:16:09;8.30;;;3.38;;
62911;SDS011;49111;51.028;4.218;2022-08-11T11:18:56;3.95;;;3.38;;
62911;SDS011;49111;51.028;4.218;2022-08-11T11:21:26;6.05;;;3.22;;
62911;SDS011;49111;51.028;4.218;2022-08-11T11:29:26;6.25;;;3.33;;
62911;SDS011;49111;51.028;4.218;2022-08-11T11:35:13;6.72;;;3.45;;
62911;SDS011;49111;51.028;4.218;2022-08-11T11:38:02;7.22;;;3.30;;
62911;SDS011;49111;51.028;4.218;2022-08-11T11:40:33;6.28;;;3.33;;
62911;SDS011;49111;51.028;4.218;2022-08-11T11:43:01;6.85;;;2.80;;
62911;SDS011;49111;51.028;4.218;2022-08-11T11:45:27;7.88;;;3.40;;
62911;SDS011;49111;51.028;4.218;2022-08-11T11:47:54;3.45;;;2.88;;
62911;SDS011;49111;51.028;4.218;2022-08-11T11:50:33;4.75;;;3.40;;
62911;SDS011;49111;51.028;4.218;2022-08-11T11:53:08;6.75;;;3.40;;
62911;SDS011;49111;51.028;4.218;2022-08-11T11:55:36;7.22;;;3.20;;
62911;SDS011;49111;51.028;4.218;2022-08-11T11:58:03;6.35;;;3.15;;
62911;SDS011;49111;51.028;4.218;2022-08-11T12:00:48;5.47;;;3.28;;
62911;SDS011;49111;51.028;4.218;2022-08-11T12:03:34;7.28;;;3.17;;
62911;SDS011;49111;51.028;4.218;2022-08-11T12:06:02;5.00;;;3.20;;
62911;SDS011;49111;51.028;4.218;2022-08-11T12:08:28;9.02;;;3.42;;
62911;SDS011;49111;51.028;4.218;2022-08-11T12:10:59;5.28;;;3.60;;
62911;SDS011;49111;51.028;4.218;2022-08-11T12:13:46;3.78;;;3.05;;
62911;SDS011;49111;51.028;4.218;2022-08-11T12:16:14;8.18;;;4.28;;
62911;SDS011;49111;51.028;4.218;2022-08-11T12:18:42;4.97;;;3.03;;
62911;SDS011;49111;51.028;4.218;2022-08-11T12:21:11;5.07;;;3.22;;
62911;SDS011;49111;51.028;4.218;2022-08-11T12:23:39;5.70;;;3.72;;
62911;SDS011;49111;51.028;4.218;2022-08-11T12:26:26;3.70;;;2.97;;
62911;SDS011;49111;51.028;4.218;2022-08-11T12:29:11;5.55;;;3.53;;
62911;SDS011;49111;51.028;4.218;2022-08-11T12:31:39;4.53;;;3.40;;
62911;SDS011;49111;51.028;4.218;2022-08-11T12:34:08;4.70;;;3.22;;
62911;SDS011;49111;51.028;4.218;2022-08-11T12:36:39;5.22;;;3.15;;
62911;SDS011;49111;51.028;4.218;2022-08-11T12:39:11;3.72;;;3.22;;
62911;SDS011;49111;51.028;4.218;2022-08-11T12:41:43;12.30;;;3.22;;
62911;SDS011;49111;51.028;4.218;2022-08-11T12:44:27;3.88;;;3.30;;
62911;SDS011;49111;51.028;4.218;2022-08-11T12:47:15;4.55;;;2.85;;
62911;SDS011;49111;51.028;4.218;2022-08-11T12:49:48;4.40;;;3.00;;
62911;SDS011;49111;51.028;4.218;2022-08-11T12:52:43;3.90;;;2.88;;
62911;SDS011;49111;51.028;4.218;2022-08-11T12:55:15;5.35;;;3.03;;
62911;SDS011;49111;51.028;4.218;2022-08-11T12:58:03;4.82;;;2.90;;
62911;SDS011;49111;51.028;4.218;2022-08-11T13:00:44;9.00;;;3.38;;
62911;SDS011;49111;51.028;4.218;2022-08-11T13:03:30;7.30;;;2.90;;
62911;SDS011;49111;51.028;4.218;2022-08-11T13:06:17;7.32;;;3.28;;
62911;SDS011;49111;51.028;4.218;2022-08-11T13:08:47;5.95;;;3.05;;
62911;SDS011;49111;51.028;4.218;2022-08-11T13:11:14;5.25;;;3.28;;
62911;SDS011;49111;51.028;4.218;2022-08-11T13:14:00;7.20;;;3.17;;
62911;SDS011;49111;51.028;4.218;2022-08-11T13:16:30;4.05;;;2.75;;
62911;SDS011;49111;51.028;4.218;2022-08-11T13:19:18;5.82;;;2.92;;
62911;SDS011;49111;51.028;4.218;2022-08-11T13:21:45;7.07;;;2.80;;
62911;SDS011;49111;51.028;4.218;2022-08-11T13:24:13;3.20;;;2.55;;
62911;SDS011;49111;51.028;4.218;2022-08-11T13:26:39;4.93;;;2.80;;
62911;SDS011;49111;51.028;4.218;2022-08-11T13:29:08;3.80;;;3.08;;
62911;SDS011;49111;51.028;4.218;2022-08-11T13:31:34;4.95;;;3.15;;
62911;SDS011;49111;51.028;4.218;2022-08-11T13:34:01;4.00;;;2.90;;
62911;SDS011;49111;51.028;4.218;2022-08-11T13:36:28;3.42;;;2.88;;
62911;SDS011;49111;51.028;4.218;2022-08-11T13:38:54;5.38;;;3.22;;
62911;SDS011;49111;51.028;4.218;2022-08-11T13:41:23;5.53;;;2.80;;
62911;SDS011;49111;51.028;4.218;2022-08-11T13:44:08;5.30;;;2.72;;
62911;SDS011;49111;51.028;4.218;2022-08-11T13:46:37;6.55;;;2.90;;
62911;SDS011;49111;51.028;4.218;2022-08-11T13:49:05;4.35;;;2.90;;
62911;SDS011;49111;51.028;4.218;2022-08-11T13:51:36;5.93;;;3.17;;
62911;SDS011;49111;51.028;4.218;2022-08-11T13:54:11;3.70;;;3.03;;
62911;SDS011;49111;51.028;4.218;2022-08-11T13:56:43;6.32;;;2.78;;
62911;SDS011;49111;51.028;4.218;2022-08-11T13:59:12;4.28;;;2.53;;
62911;SDS011;49111;51.028;4.218;2022-08-11T14:01:40;4.93;;;2.50;;
62911;SDS011;49111;51.028;4.218;2022-08-11T14:04:22;4.68;;;2.55;;
62911;SDS011;49111;51.028;4.218;2022-08-11T14:06:51;6.57;;;2.80;;
62911;SDS011;49111;51.028;4.218;2022-08-11T14:09:22;6.55;;;3.17;;
62911;SDS011;49111;51.028;4.218;2022-08-11T14:11:52;7.38;;;2.80;;
62911;SDS011;49111;51.028;4.218;2022-08-11T14:14:42;6.57;;;2.53;;
62911;SDS011;49111;51.028;4.218;2022-08-11T14:17:13;4.33;;;2.30;;
62911;SDS011;49111;51.028;4.218;2022-08-11T14:19:43;4.30;;;2.55;;
62911;SDS011;49111;51.028;4.218;2022-08-11T14:24:41;4.32;;;2.45;;
62911;SDS011;49111;51.028;4.218;2022-08-11T14:27:13;4.72;;;2.50;;
62911;SDS011;49111;51.028;4.218;2022-08-11T14:29:41;6.38;;;2.70;;
62911;SDS011;49111;51.028;4.218;2022-08-11T14:32:09;4.88;;;3.00;;
62911;SDS011;49111;51.028;4.218;2022-08-11T14:34:42;4.90;;;2.78;;
62911;SDS011;49111;51.028;4.218;2022-08-11T14:37:10;4.30;;;2.40;;
62911;SDS011;49111;51.028;4.218;2022-08-11T14:39:40;2.47;;;2.28;;
62911;SDS011;49111;51.028;4.218;2022-08-11T14:42:08;5.72;;;2.20;;
62911;SDS011;49111;51.028;4.218;2022-08-11T14:44:56;4.45;;;2.35;;
62911;SDS011;49111;51.028;4.218;2022-08-11T14:47:44;5.97;;;2.80;;
62911;SDS011;49111;51.028;4.218;2022-08-11T14:50:14;4.55;;;2.28;;
62911;SDS011;49111;51.028;4.218;2022-08-11T14:52:46;2.47;;;1.88;;
62911;SDS011;49111;51.028;4.218;2022-08-11T14:55:14;6.10;;;2.90;;
62911;SDS011;49111;51.028;4.218;2022-08-11T14:58:00;4.85;;;2.50;;
62911;SDS011;49111;51.028;4.218;2022-08-11T15:00:27;5.40;;;2.80;;
62911;SDS011;49111;51.028;4.218;2022-08-11T15:02:54;5.75;;;2.72;;
62911;SDS011;49111;51.028;4.218;2022-08-11T15:08:08;2.72;;;2.50;;
62911;SDS011;49111;51.028;4.218;2022-08-11T15:10:37;6.93;;;2.80;;
62911;SDS011;49111;51.028;4.218;2022-08-11T15:13:03;3.83;;;2.42;;
62911;SDS011;49111;51.028;4.218;2022-08-11T15:15:30;4.05;;;2.60;;
62911;SDS011;49111;51.028;4.218;2022-08-11T15:18:16;6.60;;;2.75;;
62911;SDS011;49111;51.028;4.218;2022-08-11T15:20:43;4.22;;;2.85;;
62911;SDS011;49111;51.028;4.218;2022-08-11T15:23:28;4.63;;;2.50;;
62911;SDS011;49111;51.028;4.218;2022-08-11T15:26:17;4.25;;;3.00;;
62911;SDS011;49111;51.028;4.218;2022-08-11T15:29:09;4.78;;;2.72;;
62911;SDS011;49111;51.028;4.218;2022-08-11T15:31:56;6.63;;;2.67;;
62911;SDS011;49111;51.028;4.218;2022-08-11T15:34:41;5.22;;;2.83;;
62911;SDS011;49111;51.028;4.218;2022-08-11T15:37:33;3.15;;;2.85;;
62911;SDS011;49111;51.028;4.218;2022-08-11T15:42:56;6.18;;;2.92;;
62911;SDS011;49111;51.028;4.218;2022-08-11T15:45:41;4.50;;;3.20;;
62911;SDS011;49111;51.028;4.218;2022-08-11T15:51:35;4.28;;;2.80;;
62911;SDS011;49111;51.028;4.218;2022-08-11T15:54:10;3.83;;;2.58;;
62911;SDS011;49111;51.028;4.218;2022-08-11T15:56:41;3.35;;;2.55;;
62911;SDS011;49111;51.028;4.218;2022-08-11T15:59:10;7.30;;;2.90;;
62911;SDS011;49111;51.028;4.218;2022-08-11T16:01:57;4.68;;;2.88;;
62911;SDS011;49111;51.028;4.218;2022-08-11T16:04:46;6.18;;;2.85;;
62911;SDS011;49111;51.028;4.218;2022-08-11T16:07:13;6.28;;;3.45;;
62911;SDS011;49111;51.028;4.218;2022-08-11T16:09:44;3.60;;;2.63;;
62911;SDS011;49111;51.028;4.218;2022-08-11T16:12:15;3.65;;;2.70;;
62911;SDS011;49111;51.028;4.218;2022-08-11T16:14:48;3.78;;;2.97;;
62911;SDS011;49111;51.028;4.218;2022-08-11T16:17:46;5.63;;;2.80;;
62911;SDS011;49111;51.028;4.218;2022-08-11T16:20:15;4.25;;;3.00;;
62911;SDS011;49111;51.028;4.218;2022-08-11T16:22:44;5.90;;;3.20;;
62911;SDS011;49111;51.028;4.218;2022-08-11T16:25:22;3.97;;;3.03;;
62911;SDS011;49111;51.028;4.218;2022-08-11T16:27:54;5.30;;;3.15;;
62911;SDS011;49111;51.028;4.218;2022-08-11T16:30:36;3.60;;;2.55;;
62911;SDS011;49111;51.028;4.218;2022-08-11T16:33:04;4.32;;;2.70;;
62911;SDS011;49111;51.028;4.218;2022-08-11T16:35:34;5.18;;;2.67;;
62911;SDS011;49111;51.028;4.218;2022-08-11T16:38:21;4.93;;;2.70;;
62911;SDS011;49111;51.028;4.218;2022-08-11T16:41:11;3.00;;;2.70;;
62911;SDS011;49111;51.028;4.218;2022-08-11T16:43:42;2.80;;;2.60;;
62911;SDS011;49111;51.028;4.218;2022-08-11T16:46:47;7.15;;;3.45;;
62911;SDS011;49111;51.028;4.218;2022-08-11T16:49:34;3.72;;;2.67;;
62911;SDS011;49111;51.028;4.218;2022-08-11T16:52:02;3.00;;;2.50;;
62911;SDS011;49111;51.028;4.218;2022-08-11T16:54:32;5.50;;;2.70;;
62911;SDS011;49111;51.028;4.218;2022-08-11T16:57:03;5.43;;;2.53;;
62911;SDS011;49111;51.028;4.218;2022-08-11T16:59:52;5.43;;;2.65;;
62911;SDS011;49111;51.028;4.218;2022-08-11T17:02:20;6.68;;;2.97;;
62911;SDS011;49111;51.028;4.218;2022-08-11T17:05:10;4.20;;;2.85;;
62911;SDS011;49111;51.028;4.218;2022-08-11T17:08:00;2.92;;;2.40;;
62911;SDS011;49111;51.028;4.218;2022-08-11T17:10:49;5.93;;;3.00;;
62911;SDS011;49111;51.028;4.218;2022-08-11T17:13:41;4.30;;;3.00;;
62911;SDS011;49111;51.028;4.218;2022-08-11T17:16:10;4.97;;;3.08;;
62911;SDS011;49111;51.028;4.218;2022-08-11T17:21:28;6.05;;;2.63;;
62911;SDS011;49111;51.028;4.218;2022-08-11T17:23:58;2.95;;;2.60;;
62911;SDS011;49111;51.028;4.218;2022-08-11T17:26:35;5.25;;;2.67;;
62911;SDS011;49111;51.028;4.218;2022-08-11T17:29:28;4.75;;;2.90;;
62911;SDS011;49111;51.028;4.218;2022-08-11T17:31:54;3.83;;;2.47;;
62911;SDS011;49111;51.028;4.218;2022-08-11T17:34:41;5.05;;;2.88;;
62911;SDS011;49111;51.028;4.218;2022-08-11T17:37:30;6.93;;;3.30;;
62911;SDS011;49111;51.028;4.218;2022-08-11T17:39:59;3.73;;;2.73;;
62911;SDS011;49111;51.028;4.218;2022-08-11T17:42:27;7.10;;;2.95;;
62911;SDS011;49111;51.028;4.218;2022-08-11T17:45:14;3.50;;;2.72;;
62911;SDS011;49111;51.028;4.218;2022-08-11T17:48:01;6.30;;;2.83;;
62911;SDS011;49111;51.028;4.218;2022-08-11T17:50:47;4.30;;;2.78;;
62911;SDS011;49111;51.028;4.218;2022-08-11T17:53:15;2.63;;;2.42;;
62911;SDS011;49111;51.028;4.218;2022-08-11T17:56:00;6.13;;;3.20;;
62911;SDS011;49111;51.028;4.218;2022-08-11T17:58:46;5.57;;;2.92;;
62911;SDS011;49111;51.028;4.218;2022-08-11T18:01:33;5.22;;;2.88;;
62911;SDS011;49111;51.028;4.218;2022-08-11T18:04:02;5.78;;;3.33;;
62911;SDS011;49111;51.028;4.218;2022-08-11T18:06:30;3.95;;;3.05;;
62911;SDS011;49111;51.028;4.218;2022-08-11T18:08:58;6.03;;;3.20;;
62911;SDS011;49111;51.028;4.218;2022-08-11T18:11:44;5.80;;;2.92;;
62911;SDS011;49111;51.028;4.218;2022-08-11T18:14:32;4.22;;;3.10;;
62911;SDS011;49111;51.028;4.218;2022-08-11T18:17:19;3.65;;;2.70;;
62911;SDS011;49111;51.028;4.218;2022-08-11T18:20:04;4.47;;;2.97;;
62911;SDS011;49111;51.028;4.218;2022-08-11T18:22:49;8.38;;;3.97;;
62911;SDS011;49111;51.028;4.218;2022-08-11T18:25:39;5.45;;;3.22;;
62911;SDS011;49111;51.028;4.218;2022-08-11T18:28:29;3.45;;;3.00;;
62911;SDS011;49111;51.028;4.218;2022-08-11T18:31:20;5.78;;;3.17;;
62911;SDS011;49111;51.028;4.218;2022-08-11T18:34:09;6.90;;;3.42;;
62911;SDS011;49111;51.028;4.218;2022-08-11T18:39:44;7.32;;;3.63;;
62911;SDS011;49111;51.028;4.218;2022-08-11T18:42:33;6.38;;;3.28;;
62911;SDS011;49111;51.028;4.218;2022-08-11T18:45:19;6.75;;;3.47;;
62911;SDS011;49111;51.028;4.218;2022-08-11T18:48:09;4.05;;;3.33;;
62911;SDS011;49111;51.028;4.218;2022-08-11T18:53:46;6.47;;;3.70;;
62911;SDS011;49111;51.028;4.218;2022-08-11T18:56:35;9.75;;;3.67;;
62911;SDS011;49111;51.028;4.218;2022-08-11T18:59:20;4.57;;;3.28;;
62911;SDS011;49111;51.028;4.218;2022-08-11T19:02:10;6.00;;;3.47;;
62911;SDS011;49111;51.028;4.218;2022-08-11T19:04:56;5.10;;;3.42;;
62911;SDS011;49111;51.028;4.218;2022-08-11T19:07:43;6.03;;;3.20;;
62911;SDS011;49111;51.028;4.218;2022-08-11T19:10:31;3.95;;;3.50;;
62911;SDS011;49111;51.028;4.218;2022-08-11T19:13:16;5.53;;;3.40;;
62911;SDS011;49111;51.028;4.218;2022-08-11T19:16:01;5.35;;;3.22;;
62911;SDS011;49111;51.028;4.218;2022-08-11T19:18:47;5.85;;;3.10;;
62911;SDS011;49111;51.028;4.218;2022-08-11T19:21:34;6.57;;;3.53;;
62911;SDS011;49111;51.028;4.218;2022-08-11T19:24:20;4.50;;;3.28;;
62911;SDS011;49111;51.028;4.218;2022-08-11T19:27:06;5.88;;;3.50;;
62911;SDS011;49111;51.028;4.218;2022-08-11T19:29:51;5.38;;;3.63;;
62911;SDS011;49111;51.028;4.218;2022-08-11T19:32:37;5.78;;;3.45;;
62911;SDS011;49111;51.028;4.218;2022-08-11T19:35:22;6.18;;;3.60;;
62911;SDS011;49111;51.028;4.218;2022-08-11T19:38:07;5.30;;;3.47;;
62911;SDS011;49111;51.028;4.218;2022-08-11T19:40:52;5.38;;;3.45;;
62911;SDS011;49111;51.028;4.218;2022-08-11T19:43:38;4.75;;;3.13;;
62911;SDS011;49111;51.028;4.218;2022-08-11T19:46:23;4.50;;;3.65;;
62911;SDS011;49111;51.028;4.218;2022-08-11T19:49:08;6.00;;;3.50;;
62911;SDS011;49111;51.028;4.218;2022-08-11T19:51:55;4.50;;;3.75;;
62911;SDS011;49111;51.028;4.218;2022-08-11T19:54:41;4.68;;;3.13;;
62911;SDS011;49111;51.028;4.218;2022-08-11T19:57:27;5.65;;;3.55;;
62911;SDS011;49111;51.028;4.218;2022-08-11T20:00:14;4.78;;;3.72;;
62911;SDS011;49111;51.028;4.218;2022-08-11T20:03:03;6.20;;;3.22;;
62911;SDS011;49111;51.028;4.218;2022-08-11T20:05:49;4.70;;;3.35;;
62911;SDS011;49111;51.028;4.218;2022-08-11T20:08:35;4.65;;;3.50;;
62911;SDS011;49111;51.028;4.218;2022-08-11T20:11:26;6.05;;;3.97;;
62911;SDS011;49111;51.028;4.218;2022-08-11T20:14:14;4.57;;;3.30;;
62911;SDS011;49111;51.028;4.218;2022-08-11T20:17:00;5.82;;;3.70;;
62911;SDS011;49111;51.028;4.218;2022-08-11T20:19:46;6.47;;;3.50;;
62911;SDS011;49111;51.028;4.218;2022-08-11T20:22:32;5.78;;;3.95;;
62911;SDS011;49111;51.028;4.218;2022-08-11T20:25:17;4.20;;;3.25;;
62911;SDS011;49111;51.028;4.218;2022-08-11T20:28:03;8.18;;;3.95;;
62911;SDS011;49111;51.028;4.218;2022-08-11T20:30:49;6.32;;;3.50;;
62911;SDS011;49111;51.028;4.218;2022-08-11T20:33:35;5.40;;;3.75;;
62911;SDS011;49111;51.028;4.218;2022-08-11T20:36:21;8.38;;;4.00;;
62911;SDS011;49111;51.028;4.218;2022-08-11T20:39:06;6.32;;;4.07;;
62911;SDS011;49111;51.028;4.218;2022-08-11T20:41:53;5.47;;;3.45;;
62911;SDS011;49111;51.028;4.218;2022-08-11T20:44:39;7.05;;;3.80;;
62911;SDS011;49111;51.028;4.218;2022-08-11T20:47:25;5.05;;;3.58;;
62911;SDS011;49111;51.028;4.218;2022-08-11T20:50:10;6.07;;;3.65;;
62911;SDS011;49111;51.028;4.218;2022-08-11T20:52:56;6.85;;;4.00;;
62911;SDS011;49111;51.028;4.218;2022-08-11T20:55:42;4.75;;;3.17;;
62911;SDS011;49111;51.028;4.218;2022-08-11T20:58:27;5.07;;;3.80;;
62911;SDS011;49111;51.028;4.218;2022-08-11T21:01:13;5.15;;;3.70;;
62911;SDS011;49111;51.028;4.218;2022-08-11T21:04:00;5.78;;;3.65;;
62911;SDS011;49111;51.028;4.218;2022-08-11T21:06:45;8.32;;;3.83;;
62911;SDS011;49111;51.028;4.218;2022-08-11T21:09:30;5.65;;;3.92;;
62911;SDS011;49111;51.028;4.218;2022-08-11T21:12:15;5.88;;;4.38;;
62911;SDS011;49111;51.028;4.218;2022-08-11T21:15:02;4.55;;;3.80;;
62911;SDS011;49111;51.028;4.218;2022-08-11T21:17:50;5.63;;;3.80;;
62911;SDS011;49111;51.028;4.218;2022-08-11T21:20:36;6.20;;;3.83;;
62911;SDS011;49111;51.028;4.218;2022-08-11T21:23:24;7.45;;;4.15;;
62911;SDS011;49111;51.028;4.218;2022-08-11T21:26:14;5.22;;;3.47;;
62911;SDS011;49111;51.028;4.218;2022-08-11T21:29:01;6.47;;;3.67;;
62911;SDS011;49111;51.028;4.218;2022-08-11T21:31:48;9.82;;;4.07;;
62911;SDS011;49111;51.028;4.218;2022-08-11T21:34:34;5.20;;;3.75;;
62911;SDS011;49111;51.028;4.218;2022-08-11T21:37:20;5.43;;;3.42;;
62911;SDS011;49111;51.028;4.218;2022-08-11T21:40:06;5.57;;;4.07;;
62911;SDS011;49111;51.028;4.218;2022-08-11T21:42:52;4.95;;;3.70;;
62911;SDS011;49111;51.028;4.218;2022-08-11T21:45:37;7.70;;;3.70;;
62911;SDS011;49111;51.028;4.218;2022-08-11T21:48:26;5.30;;;3.75;;
62911;SDS011;49111;51.028;4.218;2022-08-11T21:51:11;5.18;;;3.70;;
62911;SDS011;49111;51.028;4.218;2022-08-11T21:53:57;8.05;;;4.10;;
62911;SDS011;49111;51.028;4.218;2022-08-11T21:56:43;5.60;;;4.03;;
62911;SDS011;49111;51.028;4.218;2022-08-11T21:59:41;6.03;;;4.05;;
62911;SDS011;49111;51.028;4.218;2022-08-11T22:02:36;7.63;;;4.30;;
62911;SDS011;49111;51.028;4.218;2022-08-11T22:05:22;8.82;;;4.60;;
62911;SDS011;49111;51.028;4.218;2022-08-11T22:08:08;4.70;;;3.33;;
62911;SDS011;49111;51.028;4.218;2022-08-11T22:10:53;5.07;;;3.90;;
62911;SDS011;49111;51.028;4.218;2022-08-11T22:13:38;11.27;;;4.70;;
62911;SDS011;49111;51.028;4.218;2022-08-11T22:16:23;6.72;;;3.85;;
62911;SDS011;49111;51.028;4.218;2022-08-11T22:19:07;6.72;;;3.70;;
62911;SDS011;49111;51.028;4.218;2022-08-11T22:21:52;7.93;;;4.53;;
62911;SDS011;49111;51.028;4.218;2022-08-11T22:24:38;6.70;;;4.13;;
62911;SDS011;49111;51.028;4.218;2022-08-11T22:27:23;6.35;;;4.22;;
62911;SDS011;49111;51.028;4.218;2022-08-11T22:30:09;4.90;;;3.63;;
62911;SDS011;49111;51.028;4.218;2022-08-11T22:32:55;6.15;;;3.85;;
62911;SDS011;49111;51.028;4.218;2022-08-11T22:35:41;5.57;;;3.65;;
62911;SDS011;49111;51.028;4.218;2022-08-11T22:38:26;6.70;;;3.70;;
62911;SDS011;49111;51.028;4.218;2022-08-11T22:41:12;5.15;;;3.70;;
62911;SDS011;49111;51.028;4.218;2022-08-11T22:43:57;3.95;;;3.45;;
62911;SDS011;49111;51.028;4.218;2022-08-11T22:46:41;8.23;;;4.00;;
62911;SDS011;49111;51.028;4.218;2022-08-11T22:49:27;4.68;;;3.90;;
62911;SDS011;49111;51.028;4.218;2022-08-11T22:52:13;7.68;;;4.20;;
62911;SDS011;49111;51.028;4.218;2022-08-11T22:54:59;5.88;;;3.75;;
62911;SDS011;49111;51.028;4.218;2022-08-11T22:57:45;6.85;;;3.90;;
62911;SDS011;49111;51.028;4.218;2022-08-11T23:00:30;5.53;;;3.75;;
62911;SDS011;49111;51.028;4.218;2022-08-11T23:03:15;7.07;;;3.80;;
62911;SDS011;49111;51.028;4.218;2022-08-11T23:06:01;6.13;;;3.80;;
62911;SDS011;49111;51.028;4.218;2022-08-11T23:08:47;5.78;;;3.83;;
62911;SDS011;49111;51.028;4.218;2022-08-11T23:11:32;5.82;;;4.05;;
62911;SDS011;49111;51.028;4.218;2022-08-11T23:14:18;5.20;;;3.70;;
62911;SDS011;49111;51.028;4.218;2022-08-11T23:17:04;6.95;;;3.90;;
62911;SDS011;49111;51.028;4.218;2022-08-11T23:19:49;6.95;;;4.63;;
62911;SDS011;49111;51.028;4.218;2022-08-11T23:22:35;5.07;;;3.63;;
62911;SDS011;49111;51.028;4.218;2022-08-11T23:25:20;6.78;;;3.75;;
62911;SDS011;49111;51.028;4.218;2022-08-11T23:28:05;4.43;;;3.70;;
62911;SDS011;49111;51.028;4.218;2022-08-11T23:30:52;7.28;;;3.90;;
62911;SDS011;49111;51.028;4.218;2022-08-11T23:33:39;6.55;;;4.57;;
62911;SDS011;49111;51.028;4.218;2022-08-11T23:36:27;5.07;;;4.10;;
62911;SDS011;49111;51.028;4.218;2022-08-11T23:39:12;6.22;;;3.70;;
62911;SDS011;49111;51.028;4.218;2022-08-11T23:41:57;4.82;;;3.97;;
62911;SDS011;49111;51.028;4.218;2022-08-11T23:44:41;5.43;;;3.53;;
62911;SDS011;49111;51.028;4.218;2022-08-11T23:47:25;6.18;;;3.90;;
62911;SDS011;49111;51.028;4.218;2022-08-11T23:50:11;4.40;;;3.40;;
62911;SDS011;49111;51.028;4.218;2022-08-11T23:52:55;4.70;;;3.72;;
62911;SDS011;49111;51.028;4.218;2022-08-11T23:55:40;5.97;;;3.70;;
62911;SDS011;49111;51.028;4.218;2022-08-11T23:58:25;5.03;;;3.65;;
